createdAt,value
2022-12-03T00:01:47.514Z,20.56
2022-12-03T00:04:14.052Z,20.55
2022-12-03T00:06:40.707Z,20.56
2022-12-03T00:09:07.393Z,20.45
2022-12-03T00:11:34.175Z,20.54
2022-12-03T00:14:00.838Z,20.53
2022-12-03T00:16:28.103Z,20.52
2022-12-03T00:18:55.187Z,20.51
2022-12-03T00:21:24.487Z,20.47
2022-12-03T00:23:51.696Z,20.49
2022-12-03T00:26:18.776Z,20.50
2022-12-03T00:28:45.298Z,20.49
2022-12-03T00:31:16.488Z,20.42
2022-12-03T00:33:43.138Z,20.50
2022-12-03T00:36:09.989Z,20.49
2022-12-03T00:38:36.683Z,20.42
2022-12-03T00:41:03.159Z,20.49
2022-12-03T00:43:29.795Z,20.47
2022-12-03T00:45:56.494Z,20.47
2022-12-03T00:48:23.165Z,20.48
2022-12-03T00:50:49.751Z,20.47
2022-12-03T00:53:17.516Z,20.44
2022-12-03T00:55:44.075Z,20.45
2022-12-03T00:58:10.710Z,20.42
2022-12-03T01:00:38.130Z,20.44
2022-12-03T01:03:04.851Z,20.45
2022-12-03T01:05:31.407Z,20.42
2022-12-03T01:07:58.170Z,20.44
2022-12-03T01:10:24.759Z,20.44
2022-12-03T01:12:51.352Z,20.37
2022-12-03T01:15:18.138Z,20.33
2022-12-03T01:17:44.688Z,20.42
2022-12-03T01:20:11.856Z,20.44
2022-12-03T01:22:38.629Z,20.44
2022-12-03T01:25:05.537Z,20.44
2022-12-03T01:27:32.134Z,20.44
2022-12-03T01:29:58.696Z,20.42
2022-12-03T01:32:25.364Z,20.42
2022-12-03T01:34:54.771Z,20.37
2022-12-03T01:37:24.839Z,20.42
2022-12-03T01:39:51.770Z,20.38
2022-12-03T01:42:31.728Z,20.41
2022-12-03T01:45:00.628Z,20.41
2022-12-03T01:47:32.155Z,20.41
2022-12-03T01:50:04.084Z,20.41
2022-12-03T01:52:34.178Z,20.33
2022-12-03T01:55:05.125Z,20.40
2022-12-03T01:57:43.523Z,20.34
2022-12-03T02:00:14.061Z,20.40
2022-12-03T02:02:40.851Z,20.14
2022-12-03T02:05:19.575Z,20.35
2022-12-03T02:07:46.748Z,20.40
2022-12-03T02:10:16.619Z,20.32
2022-12-03T02:12:57.468Z,20.29
2022-12-03T02:15:24.300Z,20.33
2022-12-03T02:17:51.191Z,20.33
2022-12-03T02:20:18.458Z,20.33
2022-12-03T02:23:22.881Z,20.39
2022-12-03T02:25:49.549Z,20.39
2022-12-03T02:28:16.145Z,20.39
2022-12-03T02:30:42.691Z,20.31
2022-12-03T02:33:09.290Z,20.38
2022-12-03T02:35:37.149Z,20.38
2022-12-03T02:38:18.481Z,20.39
2022-12-03T02:40:47.039Z,20.39
2022-12-03T02:43:18.536Z,20.29
2022-12-03T02:45:49.514Z,20.39
2022-12-03T02:48:24.130Z,20.39
2022-12-03T02:50:54.811Z,20.38
2022-12-03T02:53:26.442Z,20.31
2022-12-03T02:55:54.667Z,20.37
2022-12-03T02:58:22.788Z,20.38
2022-12-03T03:00:54.069Z,20.39
2022-12-03T03:03:22.076Z,20.39
2022-12-03T03:05:49.463Z,20.24
2022-12-03T03:08:17.669Z,20.29
2022-12-03T03:10:45.135Z,20.39
2022-12-03T03:13:16.999Z,20.39
2022-12-03T03:15:44.555Z,20.39
2022-12-03T03:18:12.652Z,20.39
2022-12-03T03:20:39.805Z,20.31
2022-12-03T03:23:17.850Z,20.38
2022-12-03T03:25:48.691Z,20.34
2022-12-03T03:28:16.533Z,20.32
2022-12-03T03:30:44.098Z,20.38
2022-12-03T03:33:13.019Z,20.38
2022-12-03T03:35:40.094Z,20.32
2022-12-03T03:38:07.959Z,20.39
2022-12-03T03:40:34.838Z,20.39
2022-12-03T03:43:01.887Z,20.38
2022-12-03T03:45:29.537Z,20.26
2022-12-03T03:47:58.132Z,20.38
2022-12-03T03:50:25.142Z,20.28
2022-12-03T03:52:52.143Z,20.36
2022-12-03T03:55:20.332Z,20.38
2022-12-03T03:57:48.238Z,20.29
2022-12-03T04:00:16.987Z,20.33
2022-12-03T04:02:43.767Z,20.28
2022-12-03T04:05:17.681Z,20.39
2022-12-03T04:07:44.451Z,20.38
2022-12-03T04:10:31.038Z,20.37
2022-12-03T04:12:57.815Z,20.37
2022-12-03T04:15:25.461Z,20.38
2022-12-03T04:18:11.546Z,20.36
2022-12-03T04:20:40.028Z,20.33
2022-12-03T04:23:06.766Z,20.36
2022-12-03T04:25:51.900Z,20.35
2022-12-03T04:28:39.071Z,20.36
2022-12-03T04:31:26.173Z,20.27
2022-12-03T04:34:25.455Z,20.35
2022-12-03T04:36:52.060Z,20.36
2022-12-03T04:39:18.650Z,20.34
2022-12-03T04:41:45.326Z,20.35
2022-12-03T04:44:30.765Z,20.33
2022-12-03T04:46:57.470Z,20.32
2022-12-03T04:49:24.003Z,20.35
2022-12-03T04:51:50.720Z,20.36
2022-12-03T04:54:17.519Z,20.28
2022-12-03T04:56:44.555Z,20.35
2022-12-03T04:59:15.914Z,20.34
2022-12-03T05:01:44.789Z,20.34
2022-12-03T05:04:12.932Z,20.30
2022-12-03T05:06:40.353Z,20.28
2022-12-03T05:09:06.943Z,20.36
2022-12-03T05:11:33.973Z,20.33
2022-12-03T05:14:00.559Z,20.34
2022-12-03T05:16:28.732Z,20.16
2022-12-03T05:18:55.362Z,20.34
2022-12-03T05:21:22.482Z,20.35
2022-12-03T05:23:49.099Z,20.34
2022-12-03T05:26:15.798Z,20.32
2022-12-03T05:28:42.331Z,20.31
2022-12-03T05:31:09.106Z,20.36
2022-12-03T05:33:39.563Z,20.37
2022-12-03T05:36:10.499Z,20.37
2022-12-03T05:38:37.068Z,20.38
2022-12-03T05:41:24.018Z,20.25
2022-12-03T05:43:50.884Z,20.40
2022-12-03T05:46:17.737Z,20.34
2022-12-03T05:48:44.598Z,20.41
2022-12-03T05:51:11.273Z,20.42
2022-12-03T05:53:37.859Z,20.40
2022-12-03T05:56:04.630Z,20.40
2022-12-03T05:58:31.319Z,20.43
2022-12-03T06:00:57.864Z,20.39
2022-12-03T06:03:24.807Z,20.45
2022-12-03T06:05:51.500Z,20.42
2022-12-03T06:08:19.647Z,20.46
2022-12-03T06:10:46.445Z,20.46
2022-12-03T06:13:13.550Z,20.47
2022-12-03T06:15:43.677Z,20.47
2022-12-03T06:18:11.068Z,20.49
2022-12-03T06:20:37.882Z,20.49
2022-12-03T06:23:04.699Z,20.49
2022-12-03T06:25:31.223Z,20.39
2022-12-03T06:27:57.892Z,20.50
2022-12-03T06:30:24.462Z,20.51
2022-12-03T06:32:51.168Z,20.51
2022-12-03T06:35:18.891Z,20.42
2022-12-03T06:37:45.467Z,20.52
2022-12-03T06:40:13.301Z,20.48
2022-12-03T06:42:39.930Z,20.44
2022-12-03T06:45:06.747Z,20.52
2022-12-03T06:47:33.453Z,20.47
2022-12-03T06:50:00.027Z,20.51
2022-12-03T06:52:26.619Z,20.52
2022-12-03T06:54:53.460Z,20.52
2022-12-03T06:57:20.369Z,20.53
2022-12-03T06:59:46.975Z,20.51
2022-12-03T07:02:13.671Z,20.54
2022-12-03T07:04:52.354Z,20.54
2022-12-03T07:07:18.956Z,20.38
2022-12-03T07:09:45.555Z,20.54
2022-12-03T07:12:12.150Z,20.51
2022-12-03T07:14:38.737Z,20.51
2022-12-03T07:17:05.350Z,20.56
2022-12-03T07:19:32.967Z,20.56
2022-12-03T07:22:00.131Z,20.53
2022-12-03T07:24:27.434Z,20.57
2022-12-03T07:26:54.416Z,20.57
2022-12-03T07:29:20.926Z,20.58
2022-12-03T07:31:47.610Z,20.50
2022-12-03T07:34:16.967Z,20.50
2022-12-03T07:36:43.590Z,20.50
2022-12-03T07:39:10.179Z,20.52
2022-12-03T07:41:36.856Z,20.58
2022-12-03T07:44:06.505Z,20.52
2022-12-03T07:46:36.004Z,20.51
2022-12-03T07:49:03.480Z,20.59
2022-12-03T07:51:32.290Z,20.58
2022-12-03T07:53:59.231Z,20.60
2022-12-03T07:56:25.995Z,20.61
2022-12-03T07:58:52.592Z,20.45
2022-12-03T08:01:19.354Z,20.63
2022-12-03T08:03:45.920Z,20.59
2022-12-03T08:06:12.643Z,20.62
2022-12-03T08:08:39.411Z,20.55
2022-12-03T08:11:06.322Z,20.59
2022-12-03T08:13:34.295Z,20.61
2022-12-03T08:16:10.417Z,20.41
2022-12-03T08:18:37.092Z,20.58
2022-12-03T08:21:09.399Z,20.53
2022-12-03T08:23:36.635Z,20.57
2022-12-03T08:26:17.799Z,20.55
2022-12-03T08:28:45.326Z,20.50
2022-12-03T08:31:32.378Z,20.40
2022-12-03T08:34:16.266Z,20.47
2022-12-03T08:36:43.387Z,20.48
2022-12-03T08:39:37.636Z,20.53
2022-12-03T08:42:25.912Z,20.52
2022-12-03T08:44:53.307Z,20.51
2022-12-03T08:47:24.064Z,20.53
2022-12-03T08:50:03.240Z,20.56
2022-12-03T08:52:35.685Z,20.46
2022-12-03T08:55:31.145Z,20.51
2022-12-03T08:57:58.621Z,20.55
2022-12-03T09:00:25.461Z,20.64
2022-12-03T09:02:54.692Z,20.64
2022-12-03T09:05:26.144Z,20.68
2022-12-03T09:07:52.755Z,20.63
2022-12-03T09:10:19.390Z,20.70
2022-12-03T09:12:45.940Z,20.72
2022-12-03T09:15:12.616Z,20.65
2022-12-03T09:17:39.543Z,20.71
2022-12-03T09:20:07.895Z,20.75
2022-12-03T09:22:34.508Z,20.75
2022-12-03T09:25:01.175Z,20.75
2022-12-03T09:27:28.841Z,20.72
2022-12-03T09:30:11.410Z,20.77
2022-12-03T09:32:38.174Z,20.76
2022-12-03T09:35:06.127Z,20.75
2022-12-03T09:37:32.857Z,20.65
2022-12-03T09:40:02.110Z,20.81
2022-12-03T09:42:28.833Z,20.82
2022-12-03T09:44:55.941Z,20.82
2022-12-03T09:47:23.241Z,20.84
2022-12-03T09:49:49.816Z,20.79
2022-12-03T09:52:26.333Z,20.84
2022-12-03T09:54:54.814Z,20.86
2022-12-03T09:57:21.694Z,20.86
2022-12-03T09:59:48.436Z,20.82
2022-12-03T10:02:28.739Z,20.87
2022-12-03T10:04:56.642Z,20.76
2022-12-03T10:07:25.416Z,20.88
2022-12-03T10:09:52.317Z,20.78
2022-12-03T10:12:24.615Z,20.90
2022-12-03T10:14:54.770Z,20.90
2022-12-03T10:17:21.563Z,20.85
2022-12-03T10:19:48.261Z,20.71
2022-12-03T10:22:14.936Z,20.90
2022-12-03T10:24:41.588Z,20.89
2022-12-03T10:27:30.312Z,20.89
2022-12-03T10:30:02.663Z,20.87
2022-12-03T10:32:42.662Z,20.88
2022-12-03T10:35:19.223Z,20.87
2022-12-03T10:38:08.056Z,20.85
2022-12-03T10:40:39.463Z,20.60
2022-12-03T10:43:21.859Z,20.83
2022-12-03T10:46:04.687Z,20.81
2022-12-03T10:48:31.483Z,20.79
2022-12-03T10:51:00.747Z,20.77
2022-12-03T10:53:30.426Z,20.75
2022-12-03T10:55:59.737Z,20.75
2022-12-03T10:58:31.750Z,20.74
2022-12-03T11:00:58.761Z,20.73
2022-12-03T11:03:27.942Z,20.72
2022-12-03T11:05:56.333Z,20.71
2022-12-03T11:08:29.083Z,20.72
2022-12-03T11:11:20.394Z,20.70
2022-12-03T11:13:48.831Z,20.70
2022-12-03T11:16:41.357Z,20.68
2022-12-03T11:19:17.330Z,20.68
2022-12-03T11:22:05.596Z,20.67
2022-12-03T11:24:40.318Z,20.65
2022-12-03T11:27:16.833Z,20.66
2022-12-03T11:29:50.965Z,20.65
2022-12-03T11:32:36.181Z,20.63
2022-12-03T11:35:02.992Z,20.53
2022-12-03T11:37:29.665Z,20.52
2022-12-03T11:40:02.446Z,20.57
2022-12-03T11:42:36.932Z,20.57
2022-12-03T11:45:06.395Z,20.60
2022-12-03T11:48:01.000Z,20.59
2022-12-03T11:50:41.194Z,20.54
2022-12-03T11:53:07.752Z,20.57
2022-12-03T11:55:41.423Z,20.48
2022-12-03T11:58:29.327Z,20.56
2022-12-03T12:00:58.764Z,20.51
2022-12-03T12:03:44.067Z,20.51
2022-12-03T12:06:13.020Z,20.54
2022-12-03T12:08:57.511Z,20.54
2022-12-03T12:11:36.153Z,20.39
2022-12-03T12:14:02.667Z,20.53
2022-12-03T12:16:50.819Z,20.52
2022-12-03T12:19:41.091Z,20.52
2022-12-03T12:22:28.905Z,20.51
2022-12-03T12:25:02.851Z,20.44
2022-12-03T12:27:41.458Z,20.48
2022-12-03T12:30:16.281Z,20.39
2022-12-03T12:32:51.578Z,20.47
2022-12-03T12:35:26.860Z,20.43
2022-12-03T12:38:03.141Z,20.47
2022-12-03T12:40:32.173Z,20.46
2022-12-03T12:43:05.351Z,20.47
2022-12-03T12:45:36.929Z,20.42
2022-12-03T12:48:23.754Z,20.47
2022-12-03T12:50:59.633Z,20.47
2022-12-03T12:53:34.544Z,20.39
2022-12-03T12:56:08.212Z,20.37
2022-12-03T12:58:35.808Z,20.47
2022-12-03T13:01:11.348Z,20.46
2022-12-03T13:03:39.832Z,20.44
2022-12-03T13:06:10.362Z,20.39
2022-12-03T13:08:44.950Z,20.45
2022-12-03T13:11:25.284Z,20.45
2022-12-03T13:13:52.497Z,20.44
2022-12-03T13:16:23.121Z,20.44
2022-12-03T13:18:55.063Z,20.42
2022-12-03T13:21:33.887Z,20.44
2022-12-03T13:24:00.995Z,20.42
2022-12-03T13:26:39.458Z,20.43
2022-12-03T13:29:15.441Z,20.39
2022-12-03T13:31:58.797Z,20.38
2022-12-03T13:34:28.770Z,20.43
2022-12-03T13:36:58.457Z,20.45
2022-12-03T13:39:34.387Z,20.47
2022-12-03T13:42:36.287Z,20.49
2022-12-03T13:45:24.874Z,20.51
2022-12-03T13:47:59.904Z,20.53
2022-12-03T13:50:39.691Z,20.44
2022-12-03T13:53:17.889Z,20.51
2022-12-03T13:55:47.748Z,20.42
2022-12-03T13:58:14.461Z,20.55
2022-12-03T14:00:41.327Z,20.48
2022-12-03T14:03:08.007Z,20.51
2022-12-03T14:05:34.576Z,20.47
2022-12-03T14:08:02.465Z,20.48
2022-12-03T14:10:30.023Z,20.52
2022-12-03T14:12:57.298Z,20.54
2022-12-03T14:15:26.151Z,20.37
2022-12-03T14:17:52.953Z,20.55
2022-12-03T14:20:19.770Z,20.34
2022-12-03T14:22:46.427Z,20.56
2022-12-03T14:25:14.487Z,20.55
2022-12-03T14:27:41.676Z,20.57
2022-12-03T14:30:09.216Z,20.56
2022-12-03T14:32:36.232Z,20.58
2022-12-03T14:35:08.142Z,20.52
2022-12-03T14:37:36.525Z,20.59
2022-12-03T14:40:03.871Z,20.61
2022-12-03T14:42:30.510Z,20.54
2022-12-03T14:44:57.379Z,20.60
2022-12-03T14:47:25.647Z,20.64
2022-12-03T14:49:54.080Z,20.59
2022-12-03T14:52:21.258Z,20.65
2022-12-03T14:57:05.727Z,20.59
2022-12-03T14:59:33.278Z,20.65
2022-12-03T15:02:00.404Z,20.67
2022-12-03T15:04:27.097Z,20.67
2022-12-03T15:06:54.266Z,20.64
2022-12-03T15:09:21.369Z,20.65
2022-12-03T15:11:48.109Z,20.69
2022-12-03T15:14:14.804Z,20.69
2022-12-03T15:16:42.462Z,20.69
2022-12-03T15:19:09.354Z,20.63
2022-12-03T15:21:36.091Z,20.69
2022-12-03T15:24:03.504Z,20.71
2022-12-03T15:26:30.293Z,20.72
2022-12-03T15:28:57.150Z,20.72
2022-12-03T15:31:24.068Z,20.72
2022-12-03T15:33:51.717Z,20.72
2022-12-03T15:36:18.456Z,20.74
2022-12-03T15:38:46.141Z,20.74
2022-12-03T15:41:24.747Z,20.74
2022-12-03T15:43:55.101Z,20.74
2022-12-03T15:46:24.359Z,20.71
2022-12-03T15:48:54.725Z,20.76
2022-12-03T15:51:21.363Z,20.76
2022-12-03T15:53:48.281Z,20.77
2022-12-03T15:56:15.047Z,20.80
2022-12-03T15:58:41.853Z,20.80
2022-12-03T16:01:08.968Z,20.73
2022-12-03T16:03:36.196Z,20.80
2022-12-03T16:06:02.989Z,20.83
2022-12-03T16:08:29.908Z,20.80
2022-12-03T16:10:56.747Z,20.86
2022-12-03T16:13:23.480Z,20.85
2022-12-03T16:15:50.179Z,20.87
2022-12-03T16:18:18.139Z,20.86
2022-12-03T16:20:45.186Z,20.84
2022-12-03T16:23:11.740Z,20.86
2022-12-03T16:25:38.343Z,20.89
2022-12-03T16:28:06.061Z,20.91
2022-12-03T16:30:32.815Z,20.91
2022-12-03T16:32:59.391Z,20.92
2022-12-03T16:35:26.014Z,20.85
2022-12-03T16:37:52.621Z,20.89
2022-12-03T16:40:19.312Z,20.94
2022-12-03T16:42:45.857Z,20.93
2022-12-03T16:45:23.170Z,20.95
2022-12-03T16:47:50.205Z,20.96
2022-12-03T16:50:24.434Z,20.95
2022-12-03T16:52:55.966Z,20.97
2022-12-03T16:55:22.562Z,20.99
2022-12-03T16:57:49.340Z,20.89
2022-12-03T17:00:17.067Z,20.99
2022-12-03T17:02:43.815Z,20.99
2022-12-03T17:05:10.918Z,20.92
2022-12-03T17:07:37.628Z,21.01
2022-12-03T17:10:05.132Z,21.02
2022-12-03T17:13:00.660Z,21.03
2022-12-03T17:15:19.027Z,21.03
2022-12-03T17:17:45.547Z,21.04
2022-12-03T17:20:14.476Z,21.05
2022-12-03T17:22:41.551Z,21.04
2022-12-03T17:25:08.830Z,20.96
2022-12-03T17:27:35.513Z,21.07
2022-12-03T17:30:02.388Z,20.98
2022-12-03T17:32:29.155Z,21.07
2022-12-03T17:34:55.759Z,21.09
2022-12-03T17:37:22.472Z,21.09
2022-12-03T17:39:49.437Z,21.04
2022-12-03T17:42:16.023Z,21.09
2022-12-03T17:44:43.814Z,21.06
2022-12-03T17:47:10.859Z,21.11
2022-12-03T17:49:38.127Z,21.12
2022-12-03T17:52:05.215Z,21.09
2022-12-03T17:54:55.177Z,21.13
2022-12-03T17:57:19.555Z,21.14
2022-12-03T17:59:46.094Z,21.16
2022-12-03T18:02:13.607Z,21.17
2022-12-03T18:04:40.266Z,21.13
2022-12-03T18:07:06.891Z,21.17
2022-12-03T18:09:37.533Z,21.17
2022-12-03T18:12:05.719Z,21.16
2022-12-03T18:14:32.224Z,21.17
2022-12-03T18:16:58.831Z,21.13
2022-12-03T18:19:25.767Z,21.13
2022-12-03T18:21:54.153Z,21.17
2022-12-03T18:24:21.227Z,21.14
2022-12-03T18:26:47.885Z,21.08
2022-12-03T18:29:16.012Z,21.10
2022-12-03T18:31:42.752Z,21.13
2022-12-03T18:34:09.376Z,21.13
2022-12-03T18:36:36.571Z,21.15
2022-12-03T18:39:05.892Z,21.18
2022-12-03T18:41:33.383Z,21.19
2022-12-03T18:44:03.958Z,21.13
2022-12-03T18:46:52.345Z,21.19
2022-12-03T18:49:18.252Z,21.19
2022-12-03T18:51:44.749Z,21.19
2022-12-03T18:54:15.487Z,21.11
2022-12-03T18:56:42.198Z,21.18
2022-12-03T18:59:09.089Z,21.19
2022-12-03T19:01:36.260Z,21.06
2022-12-03T19:04:03.159Z,21.19
2022-12-03T19:06:30.494Z,21.19
2022-12-03T19:08:57.690Z,21.19
2022-12-03T19:11:25.736Z,21.06
2022-12-03T19:13:52.361Z,21.15
2022-12-03T19:16:19.304Z,21.18
2022-12-03T19:18:46.011Z,21.18
2022-12-03T19:21:15.464Z,21.15
2022-12-03T19:23:47.236Z,21.15
2022-12-03T19:26:25.699Z,21.17
2022-12-03T19:28:54.139Z,21.16
2022-12-03T19:31:22.025Z,21.15
2022-12-03T19:33:55.161Z,21.16
2022-12-03T19:36:28.809Z,21.11
2022-12-03T19:38:57.904Z,21.15
2022-12-03T19:41:30.497Z,21.14
2022-12-03T19:43:59.045Z,21.15
2022-12-03T19:46:31.250Z,21.06
2022-12-03T19:49:01.715Z,21.14
2022-12-03T19:51:36.111Z,21.15
2022-12-03T19:54:05.536Z,21.15
2022-12-03T19:56:32.245Z,21.14
2022-12-03T19:58:59.683Z,21.13
2022-12-03T20:01:29.428Z,21.06
2022-12-03T20:04:01.063Z,21.06
2022-12-03T20:06:31.444Z,21.14
2022-12-03T20:09:00.726Z,21.11
2022-12-03T20:11:32.436Z,21.10
2022-12-03T20:14:02.384Z,21.00
2022-12-03T20:16:32.954Z,20.98
2022-12-03T20:19:02.265Z,21.10
2022-12-03T20:21:31.584Z,21.05
2022-12-03T20:23:59.186Z,21.10
2022-12-03T20:26:26.745Z,21.09
2022-12-03T20:28:55.997Z,21.08
2022-12-03T20:31:25.720Z,21.00
2022-12-03T20:33:59.711Z,21.07
2022-12-03T20:36:27.975Z,21.08
2022-12-03T20:38:59.866Z,21.07
2022-12-03T20:41:27.391Z,21.07
2022-12-03T20:43:54.928Z,21.06
2022-12-03T20:46:26.882Z,21.03
2022-12-03T20:48:54.262Z,21.00
2022-12-03T20:51:24.076Z,21.05
2022-12-03T20:53:51.803Z,20.97
2022-12-03T20:56:21.076Z,21.06
2022-12-03T20:58:48.946Z,20.88
2022-12-03T21:01:25.614Z,21.08
2022-12-03T21:03:54.301Z,21.04
2022-12-03T21:06:25.311Z,21.09
2022-12-03T21:11:21.714Z,21.08
2022-12-03T21:13:51.418Z,21.10
2022-12-03T21:16:34.526Z,21.13
2022-12-03T21:19:12.334Z,21.13
2022-12-03T21:21:39.118Z,21.12
2022-12-03T21:24:05.953Z,21.05
2022-12-03T21:26:32.831Z,21.10
2022-12-03T21:28:59.652Z,21.11
2022-12-03T21:31:27.029Z,21.15
2022-12-03T21:33:58.141Z,21.14
2022-12-03T21:36:25.831Z,21.16
2022-12-03T21:38:52.643Z,21.14
2022-12-03T21:41:19.303Z,21.17
2022-12-03T21:43:46.133Z,21.19
2022-12-03T21:47:11.087Z,21.18
2022-12-03T21:49:02.073Z,21.20
2022-12-03T21:51:28.897Z,21.21
2022-12-03T21:53:55.777Z,21.21
2022-12-03T21:56:22.623Z,21.14
2022-12-03T21:58:49.808Z,21.19
2022-12-03T22:01:26.035Z,21.23
2022-12-03T22:03:52.797Z,21.24
2022-12-03T22:06:20.079Z,21.16
2022-12-03T22:08:47.151Z,21.23
2022-12-03T22:11:19.541Z,21.22
2022-12-03T22:13:47.325Z,21.21
2022-12-03T22:16:16.713Z,21.24
2022-12-03T22:18:43.869Z,21.13
2022-12-03T22:21:17.241Z,21.24
2022-12-03T22:23:45.230Z,21.16
2022-12-03T22:26:14.564Z,21.24
2022-12-03T22:28:48.519Z,21.11
2022-12-03T22:31:16.743Z,21.23
2022-12-03T22:33:48.275Z,21.24
2022-12-03T22:36:20.938Z,21.24
2022-12-03T22:38:50.087Z,21.16
2022-12-03T22:41:18.082Z,21.25
2022-12-03T22:43:45.589Z,21.23
2022-12-03T22:46:13.177Z,21.18
2022-12-03T22:48:41.469Z,21.18
2022-12-03T22:51:17.211Z,21.26
2022-12-03T22:53:44.148Z,21.26
2022-12-03T22:56:10.943Z,21.18
2022-12-03T22:58:39.040Z,21.26
2022-12-03T23:01:06.792Z,21.14
2022-12-03T23:03:33.502Z,21.25
2022-12-03T23:06:00.117Z,21.23
2022-12-03T23:08:27.625Z,21.25
2022-12-03T23:10:54.203Z,21.24
2022-12-03T23:13:22.080Z,21.23
2022-12-03T23:15:51.086Z,21.23
2022-12-03T23:18:18.537Z,21.23
2022-12-03T23:20:49.946Z,21.20
2022-12-03T23:23:19.700Z,21.20
2022-12-03T23:28:11.129Z,21.24
2022-12-03T23:30:39.335Z,21.05
2022-12-03T23:33:06.890Z,21.22
2022-12-03T23:35:34.006Z,21.23
2022-12-03T23:38:00.715Z,21.13
2022-12-03T23:40:27.830Z,21.23
2022-12-03T23:42:56.773Z,21.22
2022-12-03T23:45:23.410Z,21.22
2022-12-03T23:47:54.989Z,21.18
2022-12-03T23:50:24.816Z,21.22
2022-12-03T23:52:51.340Z,21.22
2022-12-03T23:55:17.925Z,21.04
2022-12-03T23:57:44.501Z,21.14
